createdAt,value
2017-04-05T03:00:32.472Z,53.65
2017-04-05T03:00:58.151Z,54.44
2017-04-05T03:01:23.713Z,53.94
2017-04-05T03:01:49.287Z,53.94
2017-04-05T03:02:14.914Z,53.84
2017-04-05T03:02:40.479Z,53.74
2017-04-05T03:03:06.052Z,53.65
2017-04-05T03:03:31.700Z,53.84
2017-04-05T03:03:57.449Z,53.65
2017-04-05T03:04:23.011Z,53.55
2017-04-05T03:04:48.584Z,53.94
2017-04-05T03:05:14.162Z,53.77
2017-04-05T03:05:39.730Z,53.87
2017-04-05T03:06:05.300Z,53.55
2017-04-05T03:06:30.860Z,53.74
2017-04-05T03:06:56.456Z,53.77
2017-04-05T03:07:22.022Z,53.67
2017-04-05T03:07:47.582Z,53.94
2017-04-05T03:08:13.151Z,53.55
2017-04-05T03:08:38.713Z,53.84
2017-04-05T03:09:04.365Z,53.67
2017-04-05T03:09:29.935Z,53.87
2017-04-05T03:09:55.514Z,53.87
2017-04-05T03:10:21.081Z,54.03
2017-04-05T03:10:46.642Z,53.65
2017-04-05T03:11:12.200Z,54.03
2017-04-05T03:11:37.773Z,53.87
2017-04-05T03:12:03.338Z,53.84
2017-04-05T03:12:28.907Z,54.03
2017-04-05T03:12:54.472Z,54.03
2017-04-05T03:13:20.029Z,54.03
2017-04-05T03:13:45.610Z,54.16
2017-04-05T03:14:11.195Z,53.74
2017-04-05T03:14:36.760Z,54.06
2017-04-05T03:15:02.341Z,53.96
2017-04-05T03:15:27.890Z,53.84
2017-04-05T03:15:53.455Z,53.65
2017-04-05T03:16:19.057Z,54.03
2017-04-05T03:16:44.621Z,54.03
2017-04-05T03:17:10.181Z,53.84
2017-04-05T03:17:35.816Z,53.65
2017-04-05T03:18:01.380Z,53.84
2017-04-05T03:18:26.931Z,53.74
2017-04-05T03:18:52.500Z,54.03
2017-04-05T03:19:18.055Z,54.13
2017-04-05T03:19:43.629Z,53.84
2017-04-05T03:20:09.198Z,53.74
2017-04-05T03:20:34.761Z,53.87
2017-04-05T03:21:00.322Z,54.03
2017-04-05T03:21:26.023Z,53.65
2017-04-05T03:21:51.602Z,53.74
2017-04-05T03:22:17.174Z,54.03
2017-04-05T03:22:42.741Z,53.94
2017-04-05T03:23:08.305Z,54.03
2017-04-05T03:23:33.889Z,53.94
2017-04-05T03:23:59.480Z,53.84
2017-04-05T03:24:25.034Z,53.84
2017-04-05T03:24:50.617Z,54.13
2017-04-05T03:25:16.264Z,54.13
2017-04-05T03:25:41.818Z,54.03
2017-04-05T03:26:07.396Z,54.13
2017-04-05T03:26:32.966Z,54.03
2017-04-05T03:26:58.532Z,54.03
2017-04-05T03:27:24.091Z,54.16
2017-04-05T03:27:49.671Z,54.03
2017-04-05T03:28:15.241Z,54.13
2017-04-05T03:28:40.821Z,54.13
2017-04-05T03:29:06.415Z,54.13
2017-04-05T03:29:31.985Z,54.32
2017-04-05T03:29:57.623Z,53.94
2017-04-05T03:30:23.202Z,54.13
2017-04-05T03:30:48.761Z,54.03
2017-04-05T03:31:14.322Z,53.94
2017-04-05T03:31:39.983Z,54.22
2017-04-05T03:32:05.632Z,54.13
2017-04-05T03:32:31.203Z,53.84
2017-04-05T03:32:56.784Z,53.84
2017-04-05T03:33:22.383Z,53.84
2017-04-05T03:33:47.910Z,53.94
2017-04-05T03:34:13.468Z,53.84
2017-04-05T03:34:39.031Z,53.94
2017-04-05T03:35:04.590Z,53.84
2017-04-05T03:35:30.161Z,53.84
2017-04-05T03:35:55.771Z,53.84
2017-04-05T03:36:21.353Z,53.84
2017-04-05T03:36:47.051Z,53.94
2017-04-05T03:37:12.622Z,53.94
2017-04-05T03:37:38.195Z,53.84
2017-04-05T03:38:03.757Z,53.94
2017-04-05T03:38:29.347Z,54.03
2017-04-05T03:38:54.914Z,54.03
2017-04-05T03:39:20.477Z,54.22
2017-04-05T03:39:46.141Z,54.03
2017-04-05T03:40:11.707Z,54.03
2017-04-05T03:40:37.258Z,53.94
2017-04-05T03:41:02.827Z,54.13
2017-04-05T03:41:28.382Z,54.13
2017-04-05T03:41:53.947Z,54.13
2017-04-05T03:42:19.523Z,54.13
2017-04-05T03:42:45.086Z,54.03
2017-04-05T03:43:10.721Z,54.03
2017-04-05T03:43:36.302Z,54.03
2017-04-05T03:44:01.860Z,54.13
2017-04-05T03:44:27.442Z,54.13
2017-04-05T03:44:53.032Z,54.13
2017-04-05T03:45:18.585Z,54.22
2017-04-05T03:45:44.226Z,54.13
2017-04-05T03:46:09.782Z,54.13
2017-04-05T03:46:35.365Z,54.13
2017-04-05T03:47:00.929Z,54.13
2017-04-05T03:47:26.571Z,54.13
2017-04-05T03:47:52.132Z,54.03
2017-04-05T03:48:17.698Z,54.03
2017-04-05T03:48:43.282Z,53.74
2017-04-05T03:49:08.874Z,54.13
2017-04-05T03:49:34.413Z,54.03
2017-04-05T03:49:59.981Z,54.13
2017-04-05T03:50:25.549Z,54.03
2017-04-05T03:50:51.193Z,54.03
2017-04-05T03:51:16.764Z,54.13
2017-04-05T03:51:42.324Z,54.03
2017-04-05T03:52:07.889Z,54.03
2017-04-05T03:52:33.458Z,54.13
2017-04-05T03:52:59.009Z,54.03
2017-04-05T03:53:24.561Z,54.22
2017-04-05T03:53:50.189Z,54.22
2017-04-05T03:54:15.758Z,54.03
2017-04-05T03:54:41.319Z,54.22
2017-04-05T03:55:06.881Z,53.84
2017-04-05T03:55:32.446Z,54.13
2017-04-05T03:55:58.005Z,54.03
2017-04-05T03:56:23.571Z,53.84
2017-04-05T03:56:49.132Z,54.13
2017-04-05T03:57:14.703Z,54.03
2017-04-05T03:57:40.268Z,54.22
2017-04-05T03:58:05.825Z,53.74
2017-04-05T03:58:31.485Z,54.13
2017-04-05T03:58:57.071Z,54.22
2017-04-05T03:59:22.636Z,54.13
2017-04-05T03:59:48.204Z,54.22
2017-04-05T04:00:13.792Z,54.32
2017-04-05T04:00:39.355Z,54.32
2017-04-05T04:01:04.910Z,54.22
2017-04-05T04:01:30.475Z,54.32
2017-04-05T04:01:56.075Z,54.22
2017-04-05T04:02:21.638Z,54.32
2017-04-05T04:02:47.203Z,54.42
2017-04-05T04:03:12.833Z,54.42
2017-04-05T04:03:38.403Z,54.32
2017-04-05T04:04:03.969Z,54.32
2017-04-05T04:04:29.545Z,54.32
2017-04-05T04:04:55.133Z,54.61
2017-04-05T04:05:20.759Z,54.61
2017-04-05T04:05:46.323Z,54.61
2017-04-05T04:06:11.879Z,54.22
2017-04-05T04:06:37.447Z,54.03
2017-04-05T04:07:03.052Z,54.52
2017-04-05T04:07:28.650Z,54.61
2017-04-05T04:07:54.233Z,54.61
2017-04-05T04:08:19.802Z,54.32
2017-04-05T04:08:45.414Z,54.61
2017-04-05T04:09:10.959Z,54.61
2017-04-05T04:09:36.610Z,54.61
2017-04-05T04:10:02.279Z,54.42
2017-04-05T04:10:27.824Z,54.52
2017-04-05T04:10:53.380Z,54.8
2017-04-05T04:11:18.928Z,54.8
2017-04-05T04:11:44.481Z,54.71
2017-04-05T04:12:10.030Z,54.52
2017-04-05T04:12:35.593Z,54.8
2017-04-05T04:13:01.169Z,54.52
2017-04-05T04:13:26.734Z,54.61
2017-04-05T04:13:52.308Z,54.8
2017-04-05T04:14:17.865Z,54.61
2017-04-05T04:14:43.438Z,54.61
2017-04-05T04:15:09.003Z,54.52
2017-04-05T04:15:34.559Z,54.32
2017-04-05T04:16:00.132Z,54.61
2017-04-05T04:16:25.692Z,54.71
2017-04-05T04:16:51.252Z,54.61
2017-04-05T04:17:16.828Z,54.61
2017-04-05T04:17:42.388Z,54.32
2017-04-05T04:18:07.952Z,54.52
2017-04-05T04:18:33.550Z,54.52
2017-04-05T04:18:59.096Z,54.32
2017-04-05T04:19:24.661Z,54.52
2017-04-05T04:19:50.244Z,54.52
2017-04-05T04:20:15.812Z,54.52
2017-04-05T04:20:41.363Z,54.52
2017-04-05T04:21:06.907Z,54.52
2017-04-05T04:21:32.445Z,54.61
2017-04-05T04:21:57.984Z,54.52
2017-04-05T04:22:23.531Z,54.52
2017-04-05T04:22:49.072Z,54.61
2017-04-05T04:23:14.635Z,54.52
2017-04-05T04:23:40.190Z,54.52
2017-04-05T04:24:05.758Z,54.52
2017-04-05T04:24:31.306Z,54.61
2017-04-05T04:24:56.872Z,54.52
2017-04-05T04:25:22.431Z,54.52
2017-04-05T04:25:47.995Z,54.52
2017-04-05T04:26:13.553Z,54.61
2017-04-05T04:26:39.104Z,54.52
2017-04-05T04:27:04.681Z,54.61
2017-04-05T04:27:30.254Z,54.52
2017-04-05T04:27:55.822Z,54.52
2017-04-05T04:28:21.396Z,54.52
2017-04-05T04:28:47.015Z,54.52
2017-04-05T04:29:12.583Z,54.42
2017-04-05T04:29:38.155Z,54.71
2017-04-05T04:30:03.715Z,54.61
2017-04-05T04:30:29.298Z,54.61
2017-04-05T04:30:54.876Z,54.52
2017-04-05T04:31:20.440Z,54.52
2017-04-05T04:31:46.013Z,54.52
2017-04-05T04:32:11.572Z,54.52
2017-04-05T04:32:37.184Z,54.52
2017-04-05T04:33:02.762Z,54.42
2017-04-05T04:33:28.322Z,54.52
2017-04-05T04:33:53.885Z,54.52
2017-04-05T04:34:19.452Z,54.32
2017-04-05T04:34:45.010Z,54.42
2017-04-05T04:35:10.560Z,54.61
2017-04-05T04:35:36.136Z,54.61
2017-04-05T04:36:01.711Z,54.22
2017-04-05T04:36:27.353Z,54.03
2017-04-05T04:36:52.918Z,54.42
2017-04-05T04:37:18.493Z,54.22
2017-04-05T04:37:44.098Z,54.61
2017-04-05T04:38:09.724Z,54.32
2017-04-05T04:38:35.303Z,54.52
2017-04-05T04:39:00.984Z,54.13
2017-04-05T04:39:26.568Z,54.52
2017-04-05T04:39:52.112Z,54.71
2017-04-05T04:40:17.683Z,54.71
2017-04-05T04:40:43.270Z,54.42
2017-04-05T04:41:08.852Z,54.61
2017-04-05T04:41:34.411Z,54.61
2017-04-05T04:41:59.962Z,54.42
2017-04-05T04:42:25.541Z,54.9
2017-04-05T04:42:51.107Z,54.71
2017-04-05T04:43:16.663Z,54.71
2017-04-05T04:43:42.219Z,54.61
2017-04-05T04:44:07.776Z,54.61
2017-04-05T04:44:33.354Z,54.42
2017-04-05T04:44:58.907Z,54.71
2017-04-05T04:45:24.472Z,54.61
2017-04-05T04:45:50.022Z,54.71
2017-04-05T04:46:15.595Z,54.71
2017-04-05T04:46:41.172Z,54.22
2017-04-05T04:47:06.753Z,54.32
2017-04-05T04:47:32.326Z,54.42
2017-04-05T04:47:57.882Z,54.42
2017-04-05T04:48:23.453Z,54.71
2017-04-05T04:48:49.011Z,54.61
2017-04-05T04:49:14.676Z,54.32
2017-04-05T04:49:40.243Z,54.32
2017-04-05T04:50:05.819Z,54.32
2017-04-05T04:50:31.490Z,54.32
2017-04-05T04:50:57.108Z,54.42
2017-04-05T04:51:22.673Z,54.32
2017-04-05T04:51:48.230Z,54.32
2017-04-05T04:52:13.794Z,54.61
2017-04-05T04:52:39.342Z,54.52
2017-04-05T04:53:04.909Z,54.61
2017-04-05T04:53:30.482Z,54.42
2017-04-05T04:53:56.074Z,54.32
2017-04-05T04:54:21.638Z,54.42
2017-04-05T04:54:47.201Z,54.32
2017-04-05T04:55:12.770Z,54.32
2017-04-05T04:55:38.435Z,54.61
2017-04-05T04:56:04.003Z,54.32
2017-04-05T04:56:29.579Z,54.32
2017-04-05T04:56:55.160Z,54.42
2017-04-05T04:57:20.733Z,54.22
2017-04-05T04:57:46.288Z,54.52
2017-04-05T04:58:11.842Z,54.42
2017-04-05T04:58:37.417Z,54.13
2017-04-05T04:59:03.000Z,54.22
2017-04-05T04:59:28.604Z,54.13
2017-04-05T04:59:54.173Z,54.42
2017-04-05T05:00:19.733Z,54.42
2017-04-05T05:00:45.320Z,54.03
2017-04-05T05:01:10.879Z,54.52
2017-04-05T05:01:36.433Z,54.42
2017-04-05T05:02:02.002Z,54.52
2017-04-05T05:02:27.570Z,54.13
2017-04-05T05:02:53.218Z,54.22
2017-04-05T05:03:18.792Z,54.13
2017-04-05T05:03:44.354Z,54.13
2017-04-05T05:04:09.930Z,54.42
2017-04-05T05:04:35.581Z,54.42
2017-04-05T05:05:01.159Z,54.22
2017-04-05T05:05:26.726Z,54.22
2017-04-05T05:05:52.413Z,54.52
2017-04-05T05:06:17.983Z,54.61
2017-04-05T05:06:43.612Z,54.52
2017-04-05T05:07:09.164Z,54.52
2017-04-05T05:07:34.754Z,54.52
2017-04-05T05:08:00.320Z,54.52
2017-04-05T05:08:25.876Z,54.52
2017-04-05T05:08:51.450Z,54.52
2017-04-05T05:09:17.009Z,54.32
2017-04-05T05:09:42.583Z,54.32
2017-04-05T05:10:08.241Z,54.32
2017-04-05T05:10:33.805Z,54.42
2017-04-05T05:10:59.392Z,54.42
2017-04-05T05:11:24.962Z,54.61
2017-04-05T05:11:50.542Z,54.61
2017-04-05T05:12:16.141Z,54.61
2017-04-05T05:12:41.693Z,54.61
2017-04-05T05:13:07.251Z,54.52
2017-04-05T05:13:32.884Z,54.52
2017-04-05T05:13:58.466Z,54.61
2017-04-05T05:14:24.019Z,54.52
2017-04-05T05:14:49.591Z,54.42
2017-04-05T05:15:15.162Z,54.52
2017-04-05T05:15:40.720Z,54.52
2017-04-05T05:16:06.331Z,54.22
2017-04-05T05:16:31.965Z,54.13
2017-04-05T05:16:57.539Z,54.13
2017-04-05T05:17:23.107Z,54.13
2017-04-05T05:17:48.683Z,54.13
2017-04-05T05:18:14.244Z,54.03
2017-04-05T05:18:39.801Z,54.13
2017-04-05T05:19:05.388Z,54.13
2017-04-05T05:19:30.950Z,53.84
2017-04-05T05:19:56.540Z,54.03
2017-04-05T05:20:22.103Z,53.55
2017-04-05T05:20:47.674Z,53.72
2017-04-05T05:21:13.353Z,53.81
2017-04-05T05:21:38.917Z,54.03
2017-04-05T05:22:04.471Z,53.65
2017-04-05T05:22:30.028Z,53.72
2017-04-05T05:22:55.697Z,53.74
2017-04-05T05:23:21.265Z,53.62
2017-04-05T05:23:46.814Z,54.03
2017-04-05T05:24:12.384Z,53.81
2017-04-05T05:24:37.954Z,54.32
2017-04-05T05:25:03.503Z,54.22
2017-04-05T05:25:29.041Z,53.74
2017-04-05T05:25:54.589Z,53.94
2017-04-05T05:26:20.141Z,53.84
2017-04-05T05:26:45.795Z,53.65
2017-04-05T05:27:11.342Z,53.55
2017-04-05T05:27:36.882Z,53.62
2017-04-05T05:28:02.424Z,53.91
2017-04-05T05:28:28.068Z,53.53
2017-04-05T05:28:53.637Z,53.94
2017-04-05T05:29:19.189Z,53.74
2017-04-05T05:29:44.719Z,53.94
2017-04-05T05:30:10.805Z,53.72
2017-04-05T05:30:36.392Z,53.55
2017-04-05T05:31:01.971Z,54.13
2017-04-05T05:31:27.542Z,53.65
2017-04-05T05:31:53.085Z,53.84
2017-04-05T05:32:18.719Z,53.27
2017-04-05T05:32:44.254Z,53.65
2017-04-05T05:33:09.939Z,53.53
2017-04-05T05:33:35.517Z,53.74
2017-04-05T05:34:01.081Z,53.55
2017-04-05T05:34:26.658Z,53.36
2017-04-05T05:34:52.237Z,53.55
2017-04-05T05:35:17.847Z,53.17
2017-04-05T05:35:43.433Z,53.07
2017-04-05T05:36:09.001Z,53.36
2017-04-05T05:36:34.614Z,53.27
2017-04-05T05:37:00.202Z,53.17
2017-04-05T05:37:25.776Z,53.45
2017-04-05T05:37:51.337Z,53.17
2017-04-05T05:38:16.899Z,53.07
2017-04-05T05:38:42.451Z,52.78
2017-04-05T05:39:08.009Z,53.17
2017-04-05T05:39:33.595Z,53.07
2017-04-05T05:39:59.291Z,53.27
2017-04-05T05:40:24.879Z,53.17
2017-04-05T05:40:50.428Z,53.07
2017-04-05T05:41:16.012Z,52.97
2017-04-05T05:41:41.588Z,52.97
2017-04-05T05:42:07.153Z,52.97
2017-04-05T05:42:32.714Z,53.07
2017-04-05T05:42:58.270Z,53.07
2017-04-05T05:43:23.826Z,53.07
2017-04-05T05:43:49.459Z,53.23
2017-04-05T05:44:15.051Z,53.27
2017-04-05T05:44:40.610Z,53.36
2017-04-05T05:45:06.182Z,52.97
2017-04-05T05:45:31.841Z,53.27
2017-04-05T05:45:57.409Z,53.17
2017-04-05T05:46:23.001Z,52.59
2017-04-05T05:46:48.649Z,53.17
2017-04-05T05:47:14.189Z,52.97
2017-04-05T05:47:39.783Z,52.87
2017-04-05T05:48:05.330Z,52.78
2017-04-05T05:48:30.890Z,52.78
2017-04-05T05:48:56.492Z,52.69
2017-04-05T05:49:22.071Z,52.87
2017-04-05T05:49:47.634Z,52.97
2017-04-05T05:50:13.193Z,52.69
2017-04-05T05:50:38.851Z,52.97
2017-04-05T05:51:32.220Z,53.07
2017-04-05T05:51:57.776Z,53.17
2017-04-05T05:52:23.482Z,53.07
2017-04-05T05:52:49.038Z,52.87
2017-04-05T05:53:14.592Z,52.87
2017-04-05T05:53:40.153Z,52.3
2017-04-05T05:54:05.734Z,52.3
2017-04-05T05:54:31.292Z,52.2
2017-04-05T05:54:56.859Z,52.2
2017-04-05T05:55:22.412Z,52.3
2017-04-05T05:55:47.982Z,52.01
2017-04-05T05:56:13.558Z,52.3
2017-04-05T05:56:39.143Z,52.3
2017-04-05T05:57:04.688Z,52.3
2017-04-05T05:57:30.236Z,52.11
2017-04-05T05:57:55.814Z,52.3
2017-04-05T05:58:21.370Z,51.92
2017-04-05T05:58:47.003Z,52.11
2017-04-05T05:59:12.573Z,52.01
2017-04-05T05:59:38.152Z,52.49
2017-04-05T06:00:03.714Z,52.4
2017-04-05T06:01:07.309Z,52.4
2017-04-05T06:01:32.973Z,52.08
2017-04-05T06:01:58.678Z,52.4
2017-04-05T06:02:24.239Z,51.82
2017-04-05T06:02:49.840Z,51.92
2017-04-05T06:03:15.401Z,52.11
2017-04-05T06:03:40.983Z,52.59
2017-04-05T06:04:06.555Z,52.4
2017-04-05T06:04:32.143Z,52.49
2017-04-05T06:04:57.874Z,51.82
2017-04-05T06:05:23.449Z,52.11
2017-04-05T06:05:49.006Z,51.92
2017-04-05T06:06:14.695Z,52.49
2017-04-05T06:06:40.254Z,51.92
2017-04-05T06:07:05.901Z,52.3
2017-04-05T06:07:31.458Z,52.3
2017-04-05T06:07:57.007Z,52.2
2017-04-05T06:08:22.569Z,52.3
2017-04-05T06:08:48.221Z,52.11
2017-04-05T06:09:13.782Z,52.01
2017-04-05T06:09:39.329Z,52.2
2017-04-05T06:10:04.885Z,52.18
2017-04-05T06:10:30.458Z,52.11
2017-04-05T06:10:56.041Z,51.92
2017-04-05T06:11:21.651Z,52.3
2017-04-05T06:11:47.215Z,52.08
2017-04-05T06:12:12.897Z,52.18
2017-04-05T06:12:38.460Z,52.11
2017-04-05T06:13:04.042Z,52.3
2017-04-05T06:13:29.603Z,52.08
2017-04-05T06:13:55.232Z,52.49
2017-04-05T06:14:20.872Z,52.27
2017-04-05T06:14:46.443Z,52.37
2017-04-05T06:15:12.051Z,52.01
2017-04-05T06:15:37.610Z,52.4
2017-04-05T06:16:03.182Z,52.18
2017-04-05T06:16:28.735Z,52.11
2017-04-05T06:16:54.302Z,52.27
2017-04-05T06:17:19.858Z,52.2
2017-04-05T06:17:45.442Z,51.7
2017-04-05T06:18:11.004Z,51.89
2017-04-05T06:18:36.582Z,51.92
2017-04-05T06:19:02.161Z,52.37
2017-04-05T06:19:27.747Z,52.4
2017-04-05T06:19:53.315Z,52.4
2017-04-05T06:20:18.866Z,52.27
2017-04-05T06:20:44.419Z,51.79
2017-04-05T06:21:10.071Z,52.4
2017-04-05T06:21:35.644Z,52.2
2017-04-05T06:22:01.262Z,52.3
2017-04-05T06:22:26.831Z,52.18
2017-04-05T06:22:52.483Z,52.4
2017-04-05T06:23:18.049Z,51.98
2017-04-05T06:23:43.604Z,52.08
2017-04-05T06:24:09.165Z,51.72
2017-04-05T06:24:34.734Z,52.4
2017-04-05T06:25:00.306Z,52.2
2017-04-05T06:25:25.851Z,52.2
2017-04-05T06:25:51.392Z,52.01
2017-04-05T06:26:17.064Z,52.08
2017-04-05T06:26:42.616Z,52.01
2017-04-05T06:27:08.174Z,51.7
2017-04-05T06:27:33.732Z,52.18
2017-04-05T06:27:59.271Z,51.89
2017-04-05T06:28:24.835Z,52.08
2017-04-05T06:28:50.392Z,52.18
2017-04-05T06:29:15.940Z,52.37
2017-04-05T06:29:41.510Z,51.89
2017-04-05T06:30:55.348Z,52.01
2017-04-05T06:31:20.898Z,51.79
2017-04-05T06:31:46.459Z,51.6
2017-04-05T06:32:12.025Z,52.18
2017-04-05T06:32:37.583Z,52.3
2017-04-05T06:33:03.243Z,52.11
2017-04-05T06:33:28.846Z,52.3
2017-04-05T06:33:54.408Z,52.18
2017-04-05T06:34:19.971Z,52.2
2017-04-05T06:34:45.550Z,52.18
2017-04-05T06:35:11.101Z,51.98
2017-04-05T06:35:36.682Z,51.7
2017-04-05T06:36:02.295Z,52.08
2017-04-05T06:36:27.862Z,52.2
2017-04-05T06:36:53.420Z,52.08
2017-04-05T06:37:18.997Z,52.2
2017-04-05T06:37:44.546Z,52.18
2017-04-05T06:38:10.187Z,52.2
2017-04-05T06:38:35.753Z,52.11
2017-04-05T06:39:01.297Z,52.11
2017-04-05T06:39:26.868Z,51.98
2017-04-05T06:39:52.460Z,51.82
2017-04-05T06:40:18.013Z,52.11
2017-04-05T06:40:43.574Z,51.89
2017-04-05T06:41:09.122Z,52.01
2017-04-05T06:41:34.708Z,52.59
2017-04-05T06:42:00.269Z,52.27
2017-04-05T06:42:25.853Z,52.18
2017-04-05T06:42:51.417Z,52.2
2017-04-05T06:43:16.982Z,52.3
2017-04-05T06:43:42.552Z,52.11
2017-04-05T06:44:08.107Z,52.18
2017-04-05T06:44:33.664Z,52.27
2017-04-05T06:44:59.232Z,52.11
2017-04-05T06:45:24.819Z,52.08
2017-04-05T06:45:50.399Z,51.98
2017-04-05T06:46:15.963Z,52.27
2017-04-05T06:46:41.531Z,52.11
2017-04-05T06:47:07.093Z,52.08
2017-04-05T06:47:32.660Z,52.27
2017-04-05T06:47:58.324Z,52.11
2017-04-05T06:48:23.902Z,51.98
2017-04-05T06:48:49.444Z,52.18
2017-04-05T06:49:15.121Z,52.01
2017-04-05T06:49:40.708Z,52.11
2017-04-05T06:50:06.270Z,52.01
2017-04-05T06:50:31.831Z,52.01
2017-04-05T06:50:57.406Z,52.08
2017-04-05T06:51:22.979Z,52.11
2017-04-05T06:51:48.542Z,51.79
2017-04-05T06:52:14.107Z,51.98
2017-04-05T06:52:39.676Z,52.08
2017-04-05T06:53:05.255Z,51.98
2017-04-05T06:53:30.810Z,52.08
2017-04-05T06:53:56.381Z,52.08
2017-04-05T06:54:21.959Z,52.27
2017-04-05T06:55:15.259Z,52.11
2017-04-05T06:55:42.076Z,51.89
2017-04-05T06:57:48.104Z,52.08
2017-04-05T06:58:13.663Z,52.3
2017-04-05T06:58:39.309Z,52.08
2017-04-05T06:59:04.943Z,52.47
2017-04-05T06:59:30.503Z,52.37
2017-04-05T06:59:56.063Z,51.98
2017-04-05T07:00:21.671Z,51.89
2017-04-05T07:00:47.218Z,52.47
2017-04-05T07:01:12.903Z,52.47
2017-04-05T07:01:38.470Z,51.89
2017-04-05T07:02:04.629Z,52.37
2017-04-05T07:02:30.215Z,51.98
2017-04-05T07:02:55.780Z,52.08
2017-04-05T07:03:21.334Z,52.08
2017-04-05T07:03:46.881Z,52.37
2017-04-05T07:04:12.496Z,52.08
2017-04-05T07:04:38.050Z,52.08
2017-04-05T07:05:03.604Z,52.47
2017-04-05T07:05:29.159Z,51.98
2017-04-05T07:06:23.931Z,52.37
2017-04-05T07:06:49.471Z,52.27
2017-04-05T07:07:15.030Z,52.27
2017-04-05T07:07:40.599Z,52.27
2017-04-05T07:08:06.158Z,52.27
2017-04-05T07:08:31.767Z,52.27
2017-04-05T07:08:57.335Z,52.27
2017-04-05T07:09:22.889Z,52.08
2017-04-05T07:09:48.439Z,52.27
2017-04-05T07:10:13.986Z,52.27
2017-04-05T07:10:39.539Z,52.37
2017-04-05T07:11:05.098Z,52.27
2017-04-05T07:11:30.639Z,52.37
2017-04-05T07:11:56.180Z,52.27
2017-04-05T07:12:21.730Z,52.08
2017-04-05T07:12:47.278Z,52.27
2017-04-05T07:13:12.829Z,52.27
2017-04-05T07:13:38.383Z,52.27
2017-04-05T07:14:03.982Z,52.37
2017-04-05T07:14:29.555Z,52.27
2017-04-05T07:14:55.129Z,52.08
2017-04-05T07:15:20.699Z,52.37
2017-04-05T07:15:46.265Z,52.08
2017-04-05T07:16:11.811Z,52.08
2017-04-05T07:16:37.476Z,52.27
2017-04-05T07:17:03.031Z,52.27
2017-04-05T07:17:28.603Z,52.27
2017-04-05T07:17:54.170Z,52.18
2017-04-05T07:18:19.733Z,52.27
2017-04-05T07:18:45.300Z,52.18
2017-04-05T07:19:10.860Z,52.27
2017-04-05T07:19:36.418Z,52.56
2017-04-05T07:20:02.052Z,52.18
2017-04-05T07:20:27.676Z,52.27
2017-04-05T07:20:53.413Z,52.27
2017-04-05T07:21:19.069Z,52.27
2017-04-05T07:21:44.628Z,52.27
2017-04-05T07:22:10.179Z,52.18
2017-04-05T07:22:35.735Z,52.27
2017-04-05T07:23:01.311Z,52.18
2017-04-05T07:23:26.883Z,52.27
2017-04-05T07:23:52.452Z,52.18
2017-04-05T07:24:18.104Z,52.18
2017-04-05T07:24:43.735Z,52.27
2017-04-05T07:25:09.286Z,52.27
2017-04-05T07:25:34.867Z,52.27
2017-04-05T07:26:00.472Z,52.27
2017-04-05T07:26:26.027Z,52.08
2017-04-05T07:26:51.594Z,52.27
2017-04-05T07:27:17.199Z,52.18
2017-04-05T07:28:31.092Z,52.18
2017-04-05T07:28:56.651Z,52.47
2017-04-05T07:29:22.207Z,52.18
2017-04-05T07:29:47.782Z,52.47
2017-04-05T07:30:13.330Z,52.47
2017-04-05T07:30:38.901Z,52.18
2017-04-05T07:31:04.459Z,52.56
2017-04-05T07:31:30.129Z,52.37
2017-04-05T07:31:55.712Z,52.37
2017-04-05T07:32:21.281Z,52.27
2017-04-05T07:32:46.829Z,52.18
2017-04-05T07:33:12.425Z,52.37
2017-04-05T07:33:37.985Z,52.37
2017-04-05T07:34:03.602Z,52.27
2017-04-05T07:34:29.124Z,52.27
2017-04-05T07:34:54.681Z,52.27
2017-04-05T07:35:20.260Z,52.47
2017-04-05T07:35:45.881Z,52.47
2017-04-05T07:36:11.446Z,52.37
2017-04-05T07:36:37.047Z,52.27
2017-04-05T07:37:02.617Z,52.47
2017-04-05T07:37:28.200Z,52.27
2017-04-05T07:37:53.760Z,52.18
2017-04-05T07:38:19.322Z,52.47
2017-04-05T07:38:44.900Z,52.27
2017-04-05T07:39:10.533Z,52.47
2017-04-05T07:39:36.097Z,52.47
2017-04-05T07:40:01.651Z,53.14
2017-04-05T07:40:27.319Z,52.75
2017-04-05T07:40:52.856Z,52.27
2017-04-05T07:41:18.400Z,53.05
2017-04-05T07:41:43.959Z,52.95
2017-04-05T07:42:09.491Z,52.85
2017-04-05T07:42:35.117Z,52.95
2017-04-05T07:43:00.676Z,52.95
2017-04-05T07:43:26.226Z,52.85
2017-04-05T07:43:51.787Z,52.85
2017-04-05T07:44:17.486Z,52.56
2017-04-05T07:44:43.053Z,52.85
2017-04-05T07:45:08.583Z,52.95
2017-04-05T07:45:34.159Z,52.95
2017-04-05T07:45:59.710Z,53.05
2017-04-05T07:46:25.272Z,52.85
2017-04-05T07:46:50.848Z,52.66
2017-04-05T07:47:16.397Z,53.05
2017-04-05T07:47:41.970Z,53.14
2017-04-05T07:48:07.586Z,53.05
2017-04-05T07:48:33.131Z,52.95
2017-04-05T07:48:58.684Z,52.95
2017-04-05T07:49:24.226Z,52.95
2017-04-05T07:49:49.769Z,52.85
2017-04-05T07:50:15.377Z,52.95
2017-04-05T07:50:40.952Z,52.85
2017-04-05T07:51:06.503Z,52.85
2017-04-05T07:51:32.111Z,52.85
2017-04-05T07:51:57.787Z,52.95
2017-04-05T07:52:23.384Z,52.85
2017-04-05T07:52:48.923Z,52.95
2017-04-05T07:53:14.496Z,52.95
2017-04-05T07:53:40.134Z,52.75
2017-04-05T07:54:05.705Z,52.85
2017-04-05T07:54:31.288Z,52.66
2017-04-05T07:54:56.950Z,52.66
2017-04-05T07:55:22.509Z,52.95
2017-04-05T07:55:48.215Z,52.85
2017-04-05T07:56:13.771Z,52.75
2017-04-05T07:56:39.351Z,52.95
2017-04-05T07:57:04.915Z,52.85
2017-04-05T07:57:30.493Z,52.56
2017-04-05T07:57:56.054Z,52.95
2017-04-05T07:58:22.556Z,52.95
2017-04-05T07:58:48.053Z,52.66
2017-04-05T07:59:13.697Z,52.66
2017-04-05T07:59:39.270Z,52.75
2017-04-05T08:00:04.838Z,52.95
2017-04-05T08:00:30.407Z,52.66
2017-04-05T08:00:55.997Z,52.95
2017-04-05T08:01:21.582Z,52.95
2017-04-05T08:01:47.163Z,52.56
2017-04-05T08:02:12.733Z,52.75
2017-04-05T08:02:38.312Z,52.85
2017-04-05T08:03:03.881Z,52.66
2017-04-05T08:03:29.437Z,52.56
2017-04-05T08:03:55.101Z,52.66
2017-04-05T08:04:20.762Z,52.75
2017-04-05T08:04:46.322Z,52.75
2017-04-05T08:05:11.902Z,52.75
2017-04-05T08:05:37.591Z,53.05
2017-04-05T08:06:03.151Z,52.95
2017-04-05T08:06:28.719Z,52.66
2017-04-05T08:06:54.271Z,52.95
2017-04-05T08:07:19.826Z,52.56
2017-04-05T08:07:45.398Z,52.66
2017-04-05T08:08:10.943Z,52.66
2017-04-05T08:08:36.513Z,52.75
2017-04-05T08:09:02.069Z,52.75
2017-04-05T08:09:27.753Z,52.75
2017-04-05T08:09:53.309Z,52.75
2017-04-05T08:10:18.930Z,52.56
2017-04-05T08:10:44.531Z,52.47
2017-04-05T08:11:10.136Z,52.75
2017-04-05T08:11:35.699Z,52.75
2017-04-05T08:12:01.248Z,53.05
2017-04-05T08:12:26.809Z,53.05
2017-04-05T08:12:52.369Z,53.05
2017-04-05T08:13:17.944Z,53.14
2017-04-05T08:13:43.486Z,53.05
2017-04-05T08:14:09.040Z,53.05
2017-04-05T08:14:34.772Z,53.14
2017-04-05T08:15:00.197Z,53.14
2017-04-05T08:15:25.754Z,53.05
2017-04-05T08:15:51.318Z,52.75
2017-04-05T08:16:16.891Z,53.05
2017-04-05T08:16:42.459Z,53.23
2017-04-05T08:17:08.242Z,53.23
2017-04-05T08:17:33.806Z,53.23
2017-04-05T08:17:59.363Z,53.23
2017-04-05T08:18:24.913Z,53.23
2017-04-05T08:18:50.491Z,52.66
2017-04-05T08:19:16.030Z,53.33
2017-04-05T08:19:41.711Z,53.23
2017-04-05T08:20:07.263Z,53.14
2017-04-05T08:20:32.917Z,53.23
2017-04-05T08:20:58.497Z,53.33
2017-04-05T08:21:24.058Z,53.33
2017-04-05T08:21:49.613Z,53.14
2017-04-05T08:22:15.188Z,53.33
2017-04-05T08:22:40.881Z,53.14
2017-04-05T08:23:06.451Z,53.14
2017-04-05T08:23:32.113Z,53.33
2017-04-05T08:23:57.679Z,53.43
2017-04-05T08:24:23.261Z,53.14
2017-04-05T08:24:48.881Z,53.33
2017-04-05T08:25:14.465Z,53.14
2017-04-05T08:25:40.017Z,53.05
2017-04-05T08:26:05.573Z,53.05
2017-04-05T08:26:31.143Z,53.05
2017-04-05T08:26:56.713Z,52.85
2017-04-05T08:27:22.290Z,53.05
2017-04-05T08:27:47.852Z,53.05
2017-04-05T08:28:13.412Z,53.05
2017-04-05T08:28:39.081Z,53.14
2017-04-05T08:29:04.755Z,52.95
2017-04-05T08:29:30.307Z,52.85
2017-04-05T08:29:55.861Z,53.14
2017-04-05T08:30:21.416Z,53.23
2017-04-05T08:30:47.092Z,53.23
2017-04-05T08:31:12.644Z,53.05
2017-04-05T08:31:38.230Z,53.05
2017-04-05T08:32:03.818Z,52.95
2017-04-05T08:32:29.367Z,53.05
2017-04-05T08:32:54.940Z,53.14
2017-04-05T08:33:20.680Z,53.05
2017-04-05T08:33:46.233Z,53.14
2017-04-05T08:34:11.811Z,53.05
2017-04-05T08:34:37.494Z,53.14
2017-04-05T08:35:03.065Z,53.05
2017-04-05T08:35:28.610Z,53.05
2017-04-05T08:35:54.317Z,53.05